createdAt,value
2018-02-16T00:00:10.395Z,97983.45
2018-02-16T00:02:37.934Z,97992.70
2018-02-16T00:05:05.458Z,97998.13
2018-02-16T00:07:36.997Z,97999.20
2018-02-16T00:10:04.685Z,98003.66
2018-02-16T00:12:32.242Z,98004.61
2018-02-16T00:14:59.875Z,98003.25
2018-02-16T00:17:27.389Z,98013.97
2018-02-16T00:19:54.906Z,98016.25
2018-02-16T00:22:22.426Z,98024.55
2018-02-16T00:24:49.968Z,98022.82
2018-02-16T00:27:17.448Z,98028.98
2018-02-16T00:29:45.028Z,98034.20
2018-02-16T00:32:12.547Z,98040.60
2018-02-16T00:34:40.076Z,98040.88
2018-02-16T00:37:07.566Z,98040.58
2018-02-16T00:39:35.077Z,98046.98
2018-02-16T00:42:02.563Z,98047.25
2018-02-16T00:44:30.098Z,98051.01
2018-02-16T00:46:57.657Z,98048.22
2018-02-16T00:49:25.183Z,98038.05
2018-02-16T00:51:52.681Z,98022.75
2018-02-16T00:54:20.185Z,98025.48
2018-02-16T00:56:47.699Z,98026.01
2018-02-16T00:59:15.188Z,98031.61
2018-02-16T01:01:42.702Z,98038.34
2018-02-16T01:04:10.728Z,98038.14
2018-02-16T01:06:38.340Z,98043.08
2018-02-16T01:09:05.892Z,98045.66
2018-02-16T01:11:33.460Z,98051.95
2018-02-16T01:14:01.051Z,98052.11
2018-02-16T01:16:28.601Z,98063.88
2018-02-16T01:18:56.081Z,98064.97
2018-02-16T01:21:23.586Z,98068.70
2018-02-16T01:23:51.071Z,98063.75
2018-02-16T01:26:18.588Z,98062.70
2018-02-16T01:28:46.113Z,98056.31
2018-02-16T01:31:13.611Z,98047.89
2018-02-16T01:33:41.100Z,98052.97
2018-02-16T01:36:08.597Z,98052.16
2018-02-16T01:38:36.094Z,98052.44
2018-02-16T01:41:03.659Z,98053.10
2018-02-16T01:43:31.167Z,98060.21
2018-02-16T01:45:58.733Z,98069.11
2018-02-16T01:48:26.407Z,98076.61
2018-02-16T01:50:53.891Z,98079.55
2018-02-16T01:53:21.421Z,98091.62
2018-02-16T01:55:49.006Z,98095.66
2018-02-16T01:58:16.686Z,98100.21
2018-02-16T02:00:44.281Z,98103.44
2018-02-16T02:03:11.809Z,98109.72
2018-02-16T02:05:39.352Z,98109.42
2018-02-16T02:08:07.159Z,98108.48
2018-02-16T02:10:34.656Z,98105.72
2018-02-16T02:13:02.157Z,98108.11
2018-02-16T02:15:29.666Z,98116.95
2018-02-16T02:17:57.158Z,98121.59
2018-02-16T02:20:24.734Z,98132.51
2018-02-16T02:22:52.234Z,98121.65
2018-02-16T02:25:19.824Z,98122.87
2018-02-16T02:27:47.329Z,98119.56
2018-02-16T02:30:14.919Z,98126.70
2018-02-16T02:32:42.455Z,98119.50
2018-02-16T02:35:09.960Z,98116.66
2018-02-16T02:37:37.474Z,98123.50
2018-02-16T02:40:04.951Z,98120.72
2018-02-16T02:42:32.463Z,98118.13
2018-02-16T02:45:00.033Z,98117.90
2018-02-16T02:47:27.566Z,98123.17
2018-02-16T02:49:55.051Z,98126.00
2018-02-16T02:52:22.646Z,98127.23
2018-02-16T02:54:50.207Z,98131.29
2018-02-16T02:57:17.851Z,98139.29
2018-02-16T02:59:45.438Z,98145.56
2018-02-16T03:02:13.017Z,98151.08
2018-02-16T03:04:40.614Z,98147.59
2018-02-16T03:07:08.235Z,98148.67
2018-02-16T03:09:35.736Z,98139.05
2018-02-16T03:12:03.205Z,98143.05
2018-02-16T03:14:30.710Z,98148.84
2018-02-16T03:16:58.223Z,98158.48
2018-02-16T03:19:25.709Z,98157.78
2018-02-16T03:21:53.218Z,98150.69
2018-02-16T03:24:20.690Z,98149.37
2018-02-16T03:26:48.196Z,98155.38
2018-02-16T03:29:15.674Z,98161.78
2018-02-16T03:31:43.177Z,98165.50
2018-02-16T03:34:10.671Z,98174.39
2018-02-16T03:36:38.167Z,98176.09
2018-02-16T03:39:05.676Z,98180.08
2018-02-16T03:41:33.226Z,98179.13
2018-02-16T03:44:00.739Z,98189.57
2018-02-16T03:46:28.217Z,98189.72
2018-02-16T03:48:55.750Z,98189.23
2018-02-16T03:51:23.255Z,98189.48
2018-02-16T03:53:50.768Z,98196.17
2018-02-16T03:56:18.285Z,98197.89
2018-02-16T03:58:45.774Z,98207.12
2018-02-16T04:01:13.268Z,98207.11
2018-02-16T04:03:40.754Z,98212.60
2018-02-16T04:06:08.386Z,98218.08
2018-02-16T04:08:36.130Z,98230.75
2018-02-16T04:11:03.636Z,98227.14
2018-02-16T04:13:31.181Z,98232.21
2018-02-16T04:15:58.750Z,98230.75
2018-02-16T04:18:26.272Z,98236.39
2018-02-16T04:20:53.748Z,98231.78
2018-02-16T04:23:21.333Z,98239.38
2018-02-16T04:25:48.861Z,98238.77
2018-02-16T04:28:16.368Z,98238.22
2018-02-16T04:30:43.845Z,98230.09
2018-02-16T04:33:11.310Z,98240.18
2018-02-16T04:35:38.816Z,98234.28
2018-02-16T04:38:06.300Z,98229.38
2018-02-16T04:40:33.782Z,98247.98
2018-02-16T04:43:01.267Z,98245.45
2018-02-16T04:45:28.768Z,98251.11
2018-02-16T04:47:56.269Z,98252.75
2018-02-16T04:50:23.873Z,98250.78
2018-02-16T04:52:51.358Z,98263.61
2018-02-16T04:55:18.876Z,98262.42
2018-02-16T04:57:46.378Z,98266.44
2018-02-16T05:00:13.855Z,98277.54
2018-02-16T05:02:41.436Z,98276.55
2018-02-16T05:05:08.928Z,98286.69
2018-02-16T05:07:36.417Z,98296.83
2018-02-16T05:10:04.083Z,98301.41
2018-02-16T05:12:31.627Z,98304.05
2018-02-16T05:14:59.116Z,98310.86
2018-02-16T05:17:26.584Z,98310.58
2018-02-16T05:19:54.147Z,98308.63
2018-02-16T05:22:21.696Z,98317.45
2018-02-16T05:24:49.225Z,98330.55
2018-02-16T05:27:16.695Z,98320.72
2018-02-16T05:29:44.206Z,98320.00
2018-02-16T05:32:12.325Z,98316.11
2018-02-16T05:34:39.842Z,98331.07
2018-02-16T05:37:07.336Z,98330.92
2018-02-16T05:39:34.813Z,98341.23
2018-02-16T05:42:02.317Z,98338.41
2018-02-16T05:44:29.783Z,98341.95
2018-02-16T05:46:57.268Z,98346.56
2018-02-16T05:49:24.737Z,98354.27
2018-02-16T05:51:52.266Z,98344.20
2018-02-16T05:54:19.733Z,98349.70
2018-02-16T05:56:47.197Z,98361.95
2018-02-16T05:59:14.717Z,98358.01
2018-02-16T06:01:42.182Z,98356.11
2018-02-16T06:04:09.691Z,98358.46
2018-02-16T06:06:37.161Z,98352.88
2018-02-16T06:09:06.809Z,98363.72
2018-02-16T06:11:34.317Z,98365.61
2018-02-16T06:14:01.797Z,98364.45
2018-02-16T06:16:29.300Z,98365.32
2018-02-16T06:18:56.806Z,98379.91
2018-02-16T06:21:24.299Z,98386.98
2018-02-16T06:23:51.852Z,98393.42
2018-02-16T06:26:19.370Z,98402.95
2018-02-16T06:28:46.832Z,98412.66
2018-02-16T06:31:14.331Z,98418.73
2018-02-16T06:33:41.958Z,98418.86
2018-02-16T06:36:09.446Z,98425.52
2018-02-16T06:38:37.060Z,98428.05
2018-02-16T06:41:04.709Z,98414.48
2018-02-16T06:43:32.293Z,98430.72
2018-02-16T06:45:59.862Z,98429.47
2018-02-16T06:48:27.452Z,98429.66
2018-02-16T06:50:55.137Z,98432.25
2018-02-16T06:53:22.658Z,98438.66
2018-02-16T06:55:50.171Z,98442.36
2018-02-16T06:58:17.664Z,98440.67
2018-02-16T07:00:45.137Z,98448.18
2018-02-16T07:03:12.677Z,98452.09
2018-02-16T07:05:40.168Z,98453.78
2018-02-16T07:08:07.681Z,98457.67
2018-02-16T07:10:35.142Z,98458.73
2018-02-16T07:13:02.651Z,98460.22
2018-02-16T07:15:30.137Z,98457.70
2018-02-16T07:17:57.642Z,98460.91
2018-02-16T07:20:25.348Z,98461.19
2018-02-16T07:22:52.844Z,98463.89
2018-02-16T07:25:20.345Z,98470.39
2018-02-16T07:27:47.830Z,98471.36
2018-02-16T07:30:15.331Z,98474.34
2018-02-16T07:32:42.813Z,98469.29
2018-02-16T07:35:10.361Z,98461.84
2018-02-16T07:37:38.183Z,98461.77
2018-02-16T07:40:05.663Z,98462.88
2018-02-16T07:42:33.173Z,98466.69
2018-02-16T07:45:00.647Z,98470.95
2018-02-16T07:47:28.147Z,98476.20
2018-02-16T07:49:55.615Z,98485.33
2018-02-16T07:52:23.110Z,98487.91
2018-02-16T07:54:50.598Z,98503.12
2018-02-16T07:57:18.136Z,98514.13
2018-02-16T07:59:45.967Z,98517.48
2018-02-16T08:02:13.449Z,98515.34
2018-02-16T08:04:40.944Z,98520.65
2018-02-16T08:07:08.580Z,98525.20
2018-02-16T08:09:36.129Z,98524.20
2018-02-16T08:12:03.611Z,98526.65
2018-02-16T08:14:31.171Z,98525.48
2018-02-16T08:16:58.679Z,98531.83
2018-02-16T08:19:26.182Z,98531.88
2018-02-16T08:21:53.661Z,98535.09
2018-02-16T08:24:21.173Z,98542.25
2018-02-16T08:26:48.665Z,98538.27
2018-02-16T08:29:16.140Z,98547.33
2018-02-16T08:31:43.639Z,98555.03
2018-02-16T08:34:11.137Z,98563.08
2018-02-16T08:36:38.649Z,98569.70
2018-02-16T08:39:06.132Z,98574.81
2018-02-16T08:41:33.652Z,98575.89
2018-02-16T08:44:01.168Z,98568.53
2018-02-16T08:46:28.671Z,98567.19
2018-02-16T08:48:56.201Z,98574.06
2018-02-16T08:51:23.699Z,98576.86
2018-02-16T08:53:51.217Z,98573.23
2018-02-16T08:56:18.700Z,98577.94
2018-02-16T08:58:46.209Z,98572.98
2018-02-16T09:01:13.697Z,98576.08
2018-02-16T09:03:41.204Z,98582.94
2018-02-16T09:06:08.703Z,98587.62
2018-02-16T09:08:36.688Z,98583.11
2018-02-16T09:11:04.167Z,98585.53
2018-02-16T09:13:31.646Z,98585.56
2018-02-16T09:15:59.145Z,98584.36
2018-02-16T09:18:26.669Z,98584.36
2018-02-16T09:20:54.217Z,98590.28
2018-02-16T09:23:21.842Z,98597.77
2018-02-16T09:25:49.364Z,98598.21
2018-02-16T09:28:16.849Z,98598.98
2018-02-16T09:30:44.350Z,98600.22
2018-02-16T09:33:11.832Z,98599.73
2018-02-16T09:35:39.660Z,98602.12
2018-02-16T09:38:07.162Z,98595.53
2018-02-16T09:40:34.649Z,98597.52
2018-02-16T09:43:02.180Z,98597.80
2018-02-16T09:45:30.172Z,98594.92
2018-02-16T09:47:58.318Z,98602.12
2018-02-16T09:50:25.808Z,98604.85
2018-02-16T09:52:53.329Z,98604.36
2018-02-16T09:55:20.806Z,98602.47
2018-02-16T09:57:48.286Z,98614.17
2018-02-16T10:00:15.800Z,98609.58
2018-02-16T10:02:43.352Z,98612.25
2018-02-16T10:05:10.850Z,98612.66
2018-02-16T10:07:38.319Z,98614.80
2018-02-16T10:10:05.836Z,98611.03
2018-02-16T10:12:33.329Z,98620.51
2018-02-16T10:15:00.823Z,98618.84
2018-02-16T10:17:28.337Z,98620.28
2018-02-16T10:19:55.829Z,98621.91
2018-02-16T10:22:23.335Z,98623.48
2018-02-16T10:24:50.848Z,98624.25
2018-02-16T10:27:18.379Z,98628.43
2018-02-16T10:29:45.869Z,98620.00
2018-02-16T10:32:13.378Z,98624.03
2018-02-16T10:34:40.848Z,98626.95
2018-02-16T10:37:08.360Z,98627.88
2018-02-16T10:39:35.886Z,98628.90
2018-02-16T10:42:03.390Z,98631.77
2018-02-16T10:44:30.891Z,98632.00
2018-02-16T10:46:58.393Z,98629.72
2018-02-16T10:49:25.920Z,98632.14
2018-02-16T10:51:53.424Z,98632.92
2018-02-16T10:54:20.945Z,98636.99
2018-02-16T10:56:48.458Z,98629.47
2018-02-16T10:59:15.927Z,98626.11
2018-02-16T11:01:44.376Z,98629.98
2018-02-16T11:04:17.292Z,98636.81
2018-02-16T11:06:48.754Z,98633.06
2018-02-16T11:09:21.235Z,98634.52
2018-02-16T11:11:48.768Z,98639.78
2018-02-16T11:14:16.249Z,98631.46
2018-02-16T11:16:43.759Z,98636.59
2018-02-16T11:19:11.257Z,98634.94
2018-02-16T11:21:38.756Z,98630.14
2018-02-16T11:24:06.280Z,98631.48
2018-02-16T11:26:33.779Z,98630.69
2018-02-16T11:29:01.281Z,98636.33
2018-02-16T11:31:29.527Z,98633.87
2018-02-16T11:33:57.043Z,98633.62
2018-02-16T11:36:24.530Z,98635.13
2018-02-16T11:38:52.080Z,98635.80
2018-02-16T11:41:19.674Z,98631.75
2018-02-16T11:43:47.168Z,98635.34
2018-02-16T11:46:14.692Z,98634.39
2018-02-16T11:48:42.177Z,98629.02
2018-02-16T11:51:10.390Z,98635.77
2018-02-16T11:53:37.913Z,98636.58
2018-02-16T11:56:05.385Z,98634.30
2018-02-16T11:58:32.927Z,98636.59
2018-02-16T12:01:00.416Z,98639.28
2018-02-16T12:03:27.966Z,98631.63
2018-02-16T12:05:55.501Z,98634.42
2018-02-16T12:08:23.122Z,98635.42
2018-02-16T12:10:50.607Z,98636.63
2018-02-16T12:13:18.220Z,98640.43
2018-02-16T12:15:45.860Z,98635.50
2018-02-16T12:18:13.543Z,98625.83
2018-02-16T12:20:41.049Z,98634.14
2018-02-16T12:23:08.550Z,98630.37
2018-02-16T12:25:36.056Z,98627.95
2018-02-16T12:28:03.615Z,98630.14
2018-02-16T12:30:31.189Z,98628.05
2018-02-16T12:32:58.931Z,98625.64
2018-02-16T12:35:26.418Z,98628.20
2018-02-16T12:37:53.964Z,98621.81
2018-02-16T12:40:21.504Z,98620.09
2018-02-16T12:42:49.118Z,98618.28
2018-02-16T12:45:16.626Z,98618.77
2018-02-16T12:47:44.762Z,98617.42
2018-02-16T12:50:12.249Z,98620.94
2018-02-16T12:52:39.747Z,98618.75
2018-02-16T12:55:07.407Z,98614.98
2018-02-16T12:57:34.973Z,98619.31
2018-02-16T13:00:02.482Z,98620.53
2018-02-16T13:02:30.011Z,98620.53
2018-02-16T13:04:57.570Z,98619.75
2018-02-16T13:07:25.073Z,98613.56
2018-02-16T13:09:53.214Z,98617.76
2018-02-16T13:12:20.716Z,98617.20
2018-02-16T13:14:48.237Z,98613.63
2018-02-16T13:17:15.743Z,98610.11
2018-02-16T13:19:43.332Z,98607.30
2018-02-16T13:22:10.816Z,98603.03
2018-02-16T13:24:38.460Z,98601.68
2018-02-16T13:27:06.055Z,98600.64
2018-02-16T13:29:33.740Z,98605.61
2018-02-16T13:32:01.253Z,98605.90
2018-02-16T13:34:28.977Z,98595.96
2018-02-16T13:36:56.549Z,98600.27
2018-02-16T13:39:24.086Z,98599.86
2018-02-16T13:41:51.642Z,98606.30
2018-02-16T13:44:19.149Z,98605.63
2018-02-16T13:46:46.795Z,98605.08
2018-02-16T13:49:14.336Z,98599.57
2018-02-16T13:51:41.837Z,98600.63
2018-02-16T13:54:09.363Z,98596.59
2018-02-16T13:56:36.842Z,98596.72
2018-02-16T13:59:04.440Z,98598.20
2018-02-16T14:01:31.930Z,98596.31
2018-02-16T14:03:59.416Z,98592.27
2018-02-16T14:06:27.726Z,98595.53
2018-02-16T14:08:55.289Z,98593.10
2018-02-16T14:11:22.815Z,98592.70
2018-02-16T14:13:50.315Z,98591.63
2018-02-16T14:16:17.902Z,98590.39
2018-02-16T14:18:45.436Z,98589.45
2018-02-16T14:21:12.951Z,98596.33
2018-02-16T14:23:40.482Z,98602.38
2018-02-16T14:26:08.067Z,98597.14
2018-02-16T14:28:35.552Z,98592.28
2018-02-16T14:31:03.127Z,98596.03
2018-02-16T14:33:30.630Z,98597.38
2018-02-16T14:35:58.163Z,98590.09
2018-02-16T14:38:25.707Z,98591.98
2018-02-16T14:40:53.693Z,98596.79
2018-02-16T14:43:21.263Z,98595.43
2018-02-16T14:45:48.846Z,98594.78
2018-02-16T14:48:16.431Z,98590.73
2018-02-16T14:50:43.961Z,98597.07
2018-02-16T14:53:11.698Z,98591.10
2018-02-16T14:55:39.800Z,98603.88
2018-02-16T14:58:07.338Z,98595.67
2018-02-16T15:00:34.825Z,98585.47
2018-02-16T15:03:03.091Z,98587.88
2018-02-16T15:05:30.613Z,98587.66
2018-02-16T15:07:58.102Z,98585.23
2018-02-16T15:10:25.674Z,98581.84
2018-02-16T15:12:53.267Z,98588.16
2018-02-16T15:15:20.804Z,98588.58
2018-02-16T15:17:48.352Z,98594.10
2018-02-16T15:20:15.841Z,98582.38
2018-02-16T15:22:43.394Z,98585.33
2018-02-16T15:25:10.969Z,98582.22
2018-02-16T15:27:38.504Z,98582.48
2018-02-16T15:30:06.029Z,98576.98
2018-02-16T15:32:33.828Z,98577.66
2018-02-16T15:35:01.448Z,98581.02
2018-02-16T15:37:28.993Z,98570.29
2018-02-16T15:39:56.588Z,98575.92
2018-02-16T15:42:24.118Z,98569.64
2018-02-16T15:44:51.739Z,98581.19
2018-02-16T15:47:19.287Z,98578.73
2018-02-16T15:49:46.833Z,98583.84
2018-02-16T15:52:14.784Z,98587.31
2018-02-16T15:54:42.305Z,98587.01
2018-02-16T15:57:09.858Z,98594.69
2018-02-16T15:59:37.373Z,98599.66
2018-02-16T16:02:04.920Z,98596.43
2018-02-16T16:04:32.499Z,98590.49
2018-02-16T16:07:00.008Z,98589.54
2018-02-16T16:09:27.793Z,98589.09
2018-02-16T16:11:55.427Z,98583.44
2018-02-16T16:14:23.083Z,98580.22
2018-02-16T16:16:50.795Z,98579.28
2018-02-16T16:19:18.306Z,98587.75
2018-02-16T16:21:45.853Z,98590.45
2018-02-16T16:24:13.503Z,98590.58
2018-02-16T16:26:41.017Z,98592.06
2018-02-16T16:29:08.574Z,98589.36
2018-02-16T16:31:36.162Z,98589.15
2018-02-16T16:34:03.665Z,98591.52
2018-02-16T16:36:31.190Z,98596.99
2018-02-16T16:38:58.674Z,98596.37
2018-02-16T16:41:26.206Z,98596.37
2018-02-16T16:43:53.736Z,98594.28
2018-02-16T16:46:21.316Z,98592.16
2018-02-16T16:48:48.814Z,98591.63
2018-02-16T16:51:16.299Z,98592.55
2018-02-16T16:53:43.824Z,98593.38
2018-02-16T16:56:11.356Z,98603.17
2018-02-16T16:58:38.876Z,98603.86
2018-02-16T17:01:06.385Z,98605.20
2018-02-16T17:03:33.908Z,98607.22
2018-02-16T17:06:01.420Z,98602.66
2018-02-16T17:08:28.993Z,98608.55
2018-02-16T17:10:56.614Z,98615.39
2018-02-16T17:13:24.190Z,98615.78
2018-02-16T17:15:51.773Z,98620.32
2018-02-16T17:18:19.757Z,98617.16
2018-02-16T17:20:47.288Z,98621.03
2018-02-16T17:23:14.829Z,98628.50
2018-02-16T17:25:42.381Z,98629.53
2018-02-16T17:28:09.921Z,98622.67
2018-02-16T17:30:37.497Z,98621.95
2018-02-16T17:33:05.011Z,98617.20
2018-02-16T17:35:32.558Z,98615.41
2018-02-16T17:38:00.061Z,98622.11
2018-02-16T17:40:27.565Z,98616.85
2018-02-16T17:42:55.128Z,98619.10
2018-02-16T17:45:22.666Z,98615.84
2018-02-16T17:47:50.193Z,98614.16
2018-02-16T17:50:17.706Z,98621.28
2018-02-16T17:52:45.280Z,98615.98
2018-02-16T17:55:12.773Z,98613.93
2018-02-16T17:57:40.381Z,98610.82
2018-02-16T18:00:07.946Z,98616.41
2018-02-16T18:02:35.510Z,98617.03
2018-02-16T18:05:03.052Z,98618.06
2018-02-16T18:07:30.587Z,98611.70
2018-02-16T18:09:58.059Z,98614.77
2018-02-16T18:12:25.718Z,98614.08
2018-02-16T18:14:53.261Z,98613.89
2018-02-16T18:17:20.861Z,98605.63
2018-02-16T18:19:48.403Z,98600.36
2018-02-16T18:22:15.940Z,98604.04
2018-02-16T18:24:43.458Z,98593.13
2018-02-16T18:27:10.948Z,98596.52
2018-02-16T18:29:38.629Z,98593.00
2018-02-16T18:32:06.132Z,98594.34
2018-02-16T18:34:33.660Z,98600.03
2018-02-16T18:37:01.186Z,98599.91
2018-02-16T18:39:28.741Z,98594.95
2018-02-16T18:41:56.241Z,98589.32
2018-02-16T18:44:23.828Z,98588.10
2018-02-16T18:46:51.337Z,98585.95
2018-02-16T18:49:18.854Z,98590.09
2018-02-16T18:51:46.383Z,98588.97
2018-02-16T18:54:13.923Z,98588.31
2018-02-16T18:56:41.441Z,98586.78
2018-02-16T18:59:08.951Z,98582.81
2018-02-16T19:01:36.546Z,98575.80
2018-02-16T19:04:04.081Z,98580.55
2018-02-16T19:06:31.797Z,98580.02
2018-02-16T19:08:59.345Z,98581.23
2018-02-16T19:11:26.939Z,98577.06
2018-02-16T19:13:54.478Z,98575.77
2018-02-16T19:16:22.009Z,98570.59
2018-02-16T19:18:49.588Z,98568.37
2018-02-16T19:21:17.133Z,98567.23
2018-02-16T19:23:45.540Z,98562.86
2018-02-16T19:26:13.068Z,98568.33
2018-02-16T19:28:40.646Z,98565.25
2018-02-16T19:31:08.743Z,98571.25
2018-02-16T19:33:36.390Z,98571.37
2018-02-16T19:36:03.901Z,98565.98
2018-02-16T19:38:31.647Z,98576.11
2018-02-16T19:40:59.198Z,98566.38
2018-02-16T19:43:26.780Z,98556.33
2018-02-16T19:45:54.334Z,98558.45
2018-02-16T19:48:21.878Z,98559.63
2018-02-16T19:50:49.372Z,98552.46
2018-02-16T19:53:16.950Z,98552.05
2018-02-16T19:55:44.445Z,98538.12
2018-02-16T19:58:12.208Z,98547.60
2018-02-16T20:00:39.706Z,98538.80
2018-02-16T20:03:07.292Z,98535.32
2018-02-16T20:05:34.898Z,98531.06
2018-02-16T20:08:02.447Z,98528.39
2018-02-16T20:10:30.019Z,98531.06
2018-02-16T20:12:57.533Z,98514.86
2018-02-16T20:15:25.257Z,98520.86
2018-02-16T20:17:52.764Z,98516.51
2018-02-16T20:20:20.291Z,98525.05
2018-02-16T20:22:47.816Z,98518.12
2018-02-16T20:25:15.349Z,98516.50
2018-02-16T20:27:42.914Z,98516.02
2018-02-16T20:30:10.426Z,98516.48
2018-02-16T20:32:38.924Z,98509.64
2018-02-16T20:35:06.457Z,98505.09
2018-02-16T20:37:33.977Z,98502.26
2018-02-16T20:40:01.465Z,98503.59
2018-02-16T20:42:29.019Z,98501.55
2018-02-16T20:44:56.542Z,98516.37
2018-02-16T20:47:24.063Z,98522.08
2018-02-16T20:49:51.642Z,98520.45
2018-02-16T20:52:19.139Z,98518.69
2018-02-16T20:54:47.484Z,98517.94
2018-02-16T20:57:15.230Z,98511.09
2018-02-16T20:59:43.137Z,98514.00
2018-02-16T21:02:10.631Z,98517.72
2018-02-16T21:04:38.139Z,98515.53
2018-02-16T21:07:05.659Z,98515.20
2018-02-16T21:09:33.176Z,98521.16
2018-02-16T21:12:00.717Z,98508.62
2018-02-16T21:14:28.211Z,98521.38
2018-02-16T21:16:55.757Z,98519.87
2018-02-16T21:19:23.273Z,98523.57
2018-02-16T21:21:50.801Z,98523.02
2018-02-16T21:24:18.336Z,98523.20
2018-02-16T21:26:45.969Z,98520.23
2018-02-16T21:29:13.478Z,98523.55
2018-02-16T21:31:40.995Z,98529.94
2018-02-16T21:34:08.558Z,98528.17
2018-02-16T21:36:36.726Z,98531.78
2018-02-16T21:39:04.254Z,98529.92
2018-02-16T21:41:31.807Z,98530.80
2018-02-16T21:43:59.422Z,98527.39
2018-02-16T21:46:27.013Z,98529.01
2018-02-16T21:48:54.606Z,98532.01
2018-02-16T21:51:22.114Z,98533.11
2018-02-16T21:53:49.731Z,98536.14
2018-02-16T21:56:17.247Z,98528.08
2018-02-16T21:58:44.756Z,98533.19
2018-02-16T22:01:12.310Z,98533.22
2018-02-16T22:03:39.898Z,98532.41
2018-02-16T22:06:07.442Z,98535.25
2018-02-16T22:08:34.956Z,98526.95
2018-02-16T22:11:02.517Z,98531.14
2018-02-16T22:13:30.043Z,98530.79
2018-02-16T22:15:58.388Z,98533.05
2018-02-16T22:18:25.961Z,98532.41
2018-02-16T22:20:53.463Z,98525.62
2018-02-16T22:23:20.989Z,98537.75
2018-02-16T22:25:48.484Z,98539.89
2018-02-16T22:28:16.027Z,98547.55
2018-02-16T22:30:43.538Z,98547.17
2018-02-16T22:33:11.205Z,98548.16
2018-02-16T22:35:38.701Z,98547.98
2018-02-16T22:38:06.191Z,98547.77
2018-02-16T22:40:34.575Z,98543.02
2018-02-16T22:43:02.121Z,98540.52
2018-02-16T22:45:29.636Z,98534.84
2018-02-16T22:47:57.364Z,98539.72
2018-02-16T22:50:24.980Z,98537.53
2018-02-16T22:52:52.603Z,98545.27
2018-02-16T22:55:20.105Z,98547.52
2018-02-16T22:57:47.646Z,98533.33
2018-02-16T23:00:15.156Z,98532.27
2018-02-16T23:02:42.685Z,98531.72
2018-02-16T23:05:10.176Z,98524.50
2018-02-16T23:07:37.733Z,98519.38
2018-02-16T23:10:05.296Z,98524.01
2018-02-16T23:12:32.815Z,98513.41
2018-02-16T23:15:00.524Z,98508.78
2018-02-16T23:17:28.040Z,98506.34
2018-02-16T23:19:55.549Z,98502.17
2018-02-16T23:22:23.067Z,98494.88
2018-02-16T23:24:50.615Z,98490.47
2018-02-16T23:27:18.157Z,98490.52
2018-02-16T23:29:45.685Z,98494.70
2018-02-16T23:32:13.232Z,98484.20
2018-02-16T23:34:40.760Z,98479.77
2018-02-16T23:37:08.249Z,98480.68
2018-02-16T23:39:35.766Z,98472.80
2018-02-16T23:42:03.292Z,98469.22
2018-02-16T23:44:30.801Z,98468.63
2018-02-16T23:46:58.311Z,98469.50
2018-02-16T23:49:25.804Z,98468.07
2018-02-16T23:51:53.314Z,98461.80
2018-02-16T23:54:20.827Z,98479.12
2018-02-16T23:56:48.375Z,98483.23
2018-02-16T23:59:15.880Z,98480.73
